sensor_id;sensor_type;location;lat;lon;timestamp;P1;durP1;ratioP1;P2;durP2;ratioP2
21894;SDS011;11112;51.270;7.224;2023-07-13T00:01:51;3.65;;;1.20;;
21894;SDS011;11112;51.270;7.224;2023-07-13T00:04:20;4.07;;;1.00;;
21894;SDS011;11112;51.270;7.224;2023-07-13T00:06:50;5.40;;;1.10;;
21894;SDS011;11112;51.270;7.224;2023-07-13T00:09:18;4.13;;;1.08;;
21894;SDS011;11112;51.270;7.224;2023-07-13T00:11:50;4.53;;;1.13;;
21894;SDS011;11112;51.270;7.224;2023-07-13T00:14:20;5.43;;;1.10;;
21894;SDS011;11112;51.270;7.224;2023-07-13T00:16:47;4.13;;;1.02;;
21894;SDS011;11112;51.270;7.224;2023-07-13T00:19:14;5.53;;;1.10;;
21894;SDS011;11112;51.270;7.224;2023-07-13T00:21:43;5.82;;;1.20;;
21894;SDS011;11112;51.270;7.224;2023-07-13T00:24:11;4.47;;;1.23;;
21894;SDS011;11112;51.270;7.224;2023-07-13T00:26:42;3.67;;;1.10;;
21894;SDS011;11112;51.270;7.224;2023-07-13T00:29:11;4.85;;;1.15;;
21894;SDS011;11112;51.270;7.224;2023-07-13T00:31:38;5.45;;;1.20;;
21894;SDS011;11112;51.270;7.224;2023-07-13T00:34:05;6.85;;;1.23;;
21894;SDS011;11112;51.270;7.224;2023-07-13T00:36:32;5.07;;;1.00;;
21894;SDS011;11112;51.270;7.224;2023-07-13T00:39:01;4.70;;;1.02;;
21894;SDS011;11112;51.270;7.224;2023-07-13T00:41:29;5.07;;;1.00;;
21894;SDS011;11112;51.270;7.224;2023-07-13T00:43:56;6.82;;;1.20;;
21894;SDS011;11112;51.270;7.224;2023-07-13T00:46:24;6.78;;;1.38;;
21894;SDS011;11112;51.270;7.224;2023-07-13T00:48:54;5.25;;;1.08;;
21894;SDS011;11112;51.270;7.224;2023-07-13T00:51:37;6.60;;;1.20;;
21894;SDS011;11112;51.270;7.224;2023-07-13T00:54:13;6.30;;;1.20;;
21894;SDS011;11112;51.270;7.224;2023-07-13T00:56:45;5.95;;;1.10;;
21894;SDS011;11112;51.270;7.224;2023-07-13T00:59:15;3.33;;;1.02;;
21894;SDS011;11112;51.270;7.224;2023-07-13T01:01:45;8.38;;;1.10;;
21894;SDS011;11112;51.270;7.224;2023-07-13T01:04:12;5.43;;;1.33;;
21894;SDS011;11112;51.270;7.224;2023-07-13T01:06:39;6.07;;;1.38;;
21894;SDS011;11112;51.270;7.224;2023-07-13T01:09:09;7.00;;;1.02;;
21894;SDS011;11112;51.270;7.224;2023-07-13T01:11:38;6.45;;;1.10;;
21894;SDS011;11112;51.270;7.224;2023-07-13T01:14:06;7.38;;;1.25;;
21894;SDS011;11112;51.270;7.224;2023-07-13T01:16:34;5.43;;;1.20;;
21894;SDS011;11112;51.270;7.224;2023-07-13T01:19:05;6.30;;;1.10;;
21894;SDS011;11112;51.270;7.224;2023-07-13T01:21:42;7.75;;;1.27;;
21894;SDS011;11112;51.270;7.224;2023-07-13T01:24:09;8.07;;;1.27;;
21894;SDS011;11112;51.270;7.224;2023-07-13T01:26:36;8.20;;;1.50;;
21894;SDS011;11112;51.270;7.224;2023-07-13T01:29:03;5.70;;;1.00;;
21894;SDS011;11112;51.270;7.224;2023-07-13T01:31:30;7.20;;;1.38;;
21894;SDS011;11112;51.270;7.224;2023-07-13T01:33:57;7.25;;;1.42;;
21894;SDS011;11112;51.270;7.224;2023-07-13T01:36:24;8.98;;;1.30;;
21894;SDS011;11112;51.270;7.224;2023-07-13T01:38:53;10.02;;;1.50;;
21894;SDS011;11112;51.270;7.224;2023-07-13T01:41:20;7.00;;;1.20;;
21894;SDS011;11112;51.270;7.224;2023-07-13T01:43:47;5.78;;;1.10;;
21894;SDS011;11112;51.270;7.224;2023-07-13T01:46:14;5.03;;;1.13;;
21894;SDS011;11112;51.270;7.224;2023-07-13T01:48:41;7.28;;;1.17;;
21894;SDS011;11112;51.270;7.224;2023-07-13T01:51:08;6.63;;;1.58;;
21894;SDS011;11112;51.270;7.224;2023-07-13T01:53:35;4.82;;;1.10;;
21894;SDS011;11112;51.270;7.224;2023-07-13T01:56:03;5.57;;;1.60;;
21894;SDS011;11112;51.270;7.224;2023-07-13T01:58:31;6.13;;;1.08;;
21894;SDS011;11112;51.270;7.224;2023-07-13T02:00:58;5.38;;;1.27;;
21894;SDS011;11112;51.270;7.224;2023-07-13T02:03:25;3.75;;;1.17;;
21894;SDS011;11112;51.270;7.224;2023-07-13T02:05:52;6.30;;;1.30;;
21894;SDS011;11112;51.270;7.224;2023-07-13T02:08:19;6.10;;;1.13;;
21894;SDS011;11112;51.270;7.224;2023-07-13T02:10:46;6.32;;;1.17;;
21894;SDS011;11112;51.270;7.224;2023-07-13T02:13:14;6.32;;;1.35;;
21894;SDS011;11112;51.270;7.224;2023-07-13T02:15:41;6.57;;;1.23;;
21894;SDS011;11112;51.270;7.224;2023-07-13T02:18:08;6.80;;;1.20;;
21894;SDS011;11112;51.270;7.224;2023-07-13T02:20:35;5.47;;;1.38;;
21894;SDS011;11112;51.270;7.224;2023-07-13T02:23:02;7.93;;;1.50;;
21894;SDS011;11112;51.270;7.224;2023-07-13T02:25:29;3.60;;;0.98;;
21894;SDS011;11112;51.270;7.224;2023-07-13T02:27:56;5.43;;;1.30;;
21894;SDS011;11112;51.270;7.224;2023-07-13T02:30:25;4.95;;;1.23;;
21894;SDS011;11112;51.270;7.224;2023-07-13T02:32:54;6.10;;;0.95;;
21894;SDS011;11112;51.270;7.224;2023-07-13T02:35:23;6.00;;;1.00;;
21894;SDS011;11112;51.270;7.224;2023-07-13T02:37:50;6.00;;;1.20;;
21894;SDS011;11112;51.270;7.224;2023-07-13T02:40:17;6.47;;;1.00;;
21894;SDS011;11112;51.270;7.224;2023-07-13T02:42:44;7.22;;;1.40;;
21894;SDS011;11112;51.270;7.224;2023-07-13T02:45:11;5.38;;;1.33;;
21894;SDS011;11112;51.270;7.224;2023-07-13T02:47:41;5.57;;;0.98;;
21894;SDS011;11112;51.270;7.224;2023-07-13T02:50:09;4.53;;;1.00;;
21894;SDS011;11112;51.270;7.224;2023-07-13T02:52:36;3.50;;;1.00;;
21894;SDS011;11112;51.270;7.224;2023-07-13T02:55:03;6.65;;;1.13;;
21894;SDS011;11112;51.270;7.224;2023-07-13T02:57:30;9.68;;;1.20;;
21894;SDS011;11112;51.270;7.224;2023-07-13T02:59:59;5.10;;;1.10;;
21894;SDS011;11112;51.270;7.224;2023-07-13T03:02:26;7.32;;;1.27;;
21894;SDS011;11112;51.270;7.224;2023-07-13T03:04:55;4.28;;;1.05;;
21894;SDS011;11112;51.270;7.224;2023-07-13T03:07:22;5.05;;;1.10;;
21894;SDS011;11112;51.270;7.224;2023-07-13T03:09:53;6.55;;;1.30;;
21894;SDS011;11112;51.270;7.224;2023-07-13T03:12:22;5.80;;;1.25;;
21894;SDS011;11112;51.270;7.224;2023-07-13T03:14:49;6.72;;;1.20;;
21894;SDS011;11112;51.270;7.224;2023-07-13T03:17:17;6.72;;;1.10;;
21894;SDS011;11112;51.270;7.224;2023-07-13T03:19:44;6.78;;;1.35;;
21894;SDS011;11112;51.270;7.224;2023-07-13T03:22:15;7.15;;;1.20;;
21894;SDS011;11112;51.270;7.224;2023-07-13T03:24:43;6.70;;;1.40;;
21894;SDS011;11112;51.270;7.224;2023-07-13T03:27:10;4.50;;;1.10;;
21894;SDS011;11112;51.270;7.224;2023-07-13T03:29:37;6.78;;;1.35;;
21894;SDS011;11112;51.270;7.224;2023-07-13T03:32:05;6.85;;;1.38;;
21894;SDS011;11112;51.270;7.224;2023-07-13T03:34:33;6.35;;;1.40;;
21894;SDS011;11112;51.270;7.224;2023-07-13T03:37:00;4.10;;;1.10;;
21894;SDS011;11112;51.270;7.224;2023-07-13T03:39:28;5.50;;;1.20;;
21894;SDS011;11112;51.270;7.224;2023-07-13T03:41:56;3.33;;;1.00;;
21894;SDS011;11112;51.270;7.224;2023-07-13T03:44:23;8.40;;;1.20;;
21894;SDS011;11112;51.270;7.224;2023-07-13T03:46:50;4.80;;;1.25;;
21894;SDS011;11112;51.270;7.224;2023-07-13T03:49:17;6.03;;;1.40;;
21894;SDS011;11112;51.270;7.224;2023-07-13T03:51:44;5.53;;;1.33;;
21894;SDS011;11112;51.270;7.224;2023-07-13T03:54:11;9.90;;;1.45;;
21894;SDS011;11112;51.270;7.224;2023-07-13T03:56:39;6.43;;;1.65;;
21894;SDS011;11112;51.270;7.224;2023-07-13T03:59:06;4.97;;;1.00;;
21894;SDS011;11112;51.270;7.224;2023-07-13T04:01:33;5.82;;;1.17;;
21894;SDS011;11112;51.270;7.224;2023-07-13T04:04:01;7.35;;;1.35;;
21894;SDS011;11112;51.270;7.224;2023-07-13T04:06:29;6.55;;;1.30;;
21894;SDS011;11112;51.270;7.224;2023-07-13T04:08:57;5.70;;;1.00;;
21894;SDS011;11112;51.270;7.224;2023-07-13T04:11:27;4.72;;;1.08;;
21894;SDS011;11112;51.270;7.224;2023-07-13T04:13:59;6.72;;;1.30;;
21894;SDS011;11112;51.270;7.224;2023-07-13T04:16:27;5.30;;;1.15;;
21894;SDS011;11112;51.270;7.224;2023-07-13T04:18:54;3.90;;;1.08;;
21894;SDS011;11112;51.270;7.224;2023-07-13T04:21:25;3.92;;;0.90;;
21894;SDS011;11112;51.270;7.224;2023-07-13T04:23:53;5.32;;;1.38;;
21894;SDS011;11112;51.270;7.224;2023-07-13T04:26:20;6.10;;;1.38;;
21894;SDS011;11112;51.270;7.224;2023-07-13T04:28:48;7.28;;;1.40;;
21894;SDS011;11112;51.270;7.224;2023-07-13T04:31:17;5.07;;;1.30;;
21894;SDS011;11112;51.270;7.224;2023-07-13T04:33:44;9.10;;;1.45;;
21894;SDS011;11112;51.270;7.224;2023-07-13T04:36:12;8.50;;;1.60;;
21894;SDS011;11112;51.270;7.224;2023-07-13T04:38:39;6.22;;;1.48;;
21894;SDS011;11112;51.270;7.224;2023-07-13T04:41:06;7.13;;;1.40;;
21894;SDS011;11112;51.270;7.224;2023-07-13T04:43:35;6.10;;;1.33;;
21894;SDS011;11112;51.270;7.224;2023-07-13T04:46:03;5.28;;;1.17;;
21894;SDS011;11112;51.270;7.224;2023-07-13T04:48:33;7.88;;;1.40;;
21894;SDS011;11112;51.270;7.224;2023-07-13T04:51:00;10.70;;;1.42;;
21894;SDS011;11112;51.270;7.224;2023-07-13T04:53:28;5.05;;;1.20;;
21894;SDS011;11112;51.270;7.224;2023-07-13T04:55:56;6.28;;;1.50;;
21894;SDS011;11112;51.270;7.224;2023-07-13T04:58:23;6.85;;;1.33;;
21894;SDS011;11112;51.270;7.224;2023-07-13T05:00:50;4.53;;;1.30;;
21894;SDS011;11112;51.270;7.224;2023-07-13T05:03:18;5.75;;;1.50;;
21894;SDS011;11112;51.270;7.224;2023-07-13T05:05:55;7.32;;;1.63;;
21894;SDS011;11112;51.270;7.224;2023-07-13T05:08:24;5.97;;;1.60;;
21894;SDS011;11112;51.270;7.224;2023-07-13T05:10:51;6.68;;;1.75;;
21894;SDS011;11112;51.270;7.224;2023-07-13T05:13:19;6.32;;;1.45;;
21894;SDS011;11112;51.270;7.224;2023-07-13T05:15:47;8.23;;;1.60;;
21894;SDS011;11112;51.270;7.224;2023-07-13T05:18:22;5.88;;;1.50;;
21894;SDS011;11112;51.270;7.224;2023-07-13T05:20:56;5.18;;;1.30;;
21894;SDS011;11112;51.270;7.224;2023-07-13T05:23:25;8.85;;;1.65;;
21894;SDS011;11112;51.270;7.224;2023-07-13T05:25:52;9.60;;;1.60;;
21894;SDS011;11112;51.270;7.224;2023-07-13T05:28:20;9.00;;;1.67;;
21894;SDS011;11112;51.270;7.224;2023-07-13T05:30:48;5.07;;;1.40;;
21894;SDS011;11112;51.270;7.224;2023-07-13T05:33:16;5.50;;;1.50;;
21894;SDS011;11112;51.270;7.224;2023-07-13T05:35:43;7.20;;;1.63;;
21894;SDS011;11112;51.270;7.224;2023-07-13T05:38:12;7.38;;;1.60;;
21894;SDS011;11112;51.270;7.224;2023-07-13T05:40:39;6.32;;;1.48;;
21894;SDS011;11112;51.270;7.224;2023-07-13T05:43:09;7.15;;;1.60;;
21894;SDS011;11112;51.270;7.224;2023-07-13T05:45:36;6.60;;;1.60;;
21894;SDS011;11112;51.270;7.224;2023-07-13T05:48:03;7.75;;;1.52;;
21894;SDS011;11112;51.270;7.224;2023-07-13T05:50:31;6.85;;;1.70;;
21894;SDS011;11112;51.270;7.224;2023-07-13T05:52:58;7.13;;;1.80;;
21894;SDS011;11112;51.270;7.224;2023-07-13T05:55:26;7.20;;;1.60;;
21894;SDS011;11112;51.270;7.224;2023-07-13T05:57:53;7.53;;;1.75;;
21894;SDS011;11112;51.270;7.224;2023-07-13T06:00:23;7.47;;;1.70;;
21894;SDS011;11112;51.270;7.224;2023-07-13T06:02:50;8.48;;;1.67;;
21894;SDS011;11112;51.270;7.224;2023-07-13T06:05:17;6.72;;;1.83;;
21894;SDS011;11112;51.270;7.224;2023-07-13T06:07:45;9.15;;;1.77;;
21894;SDS011;11112;51.270;7.224;2023-07-13T06:10:12;7.32;;;2.08;;
21894;SDS011;11112;51.270;7.224;2023-07-13T06:12:40;7.65;;;1.98;;
21894;SDS011;11112;51.270;7.224;2023-07-13T06:15:08;9.18;;;2.08;;
21894;SDS011;11112;51.270;7.224;2023-07-13T06:17:36;7.93;;;1.80;;
21894;SDS011;11112;51.270;7.224;2023-07-13T06:20:03;8.60;;;2.22;;
21894;SDS011;11112;51.270;7.224;2023-07-13T06:22:31;11.07;;;2.13;;
21894;SDS011;11112;51.270;7.224;2023-07-13T06:24:59;7.60;;;2.25;;
21894;SDS011;11112;51.270;7.224;2023-07-13T06:27:26;9.57;;;2.33;;
21894;SDS011;11112;51.270;7.224;2023-07-13T06:29:55;9.93;;;2.10;;
21894;SDS011;11112;51.270;7.224;2023-07-13T06:32:22;7.93;;;1.98;;
21894;SDS011;11112;51.270;7.224;2023-07-13T06:34:49;11.65;;;2.15;;
21894;SDS011;11112;51.270;7.224;2023-07-13T06:37:16;8.57;;;2.33;;
21894;SDS011;11112;51.270;7.224;2023-07-13T06:39:44;9.45;;;2.42;;
21894;SDS011;11112;51.270;7.224;2023-07-13T06:42:11;7.50;;;2.05;;
21894;SDS011;11112;51.270;7.224;2023-07-13T06:44:38;8.75;;;2.22;;
21894;SDS011;11112;51.270;7.224;2023-07-13T06:47:07;8.85;;;2.25;;
21894;SDS011;11112;51.270;7.224;2023-07-13T06:49:34;7.78;;;2.08;;
21894;SDS011;11112;51.270;7.224;2023-07-13T06:52:01;8.23;;;2.25;;
21894;SDS011;11112;51.270;7.224;2023-07-13T06:54:29;9.00;;;2.63;;
21894;SDS011;11112;51.270;7.224;2023-07-13T06:56:56;8.85;;;2.40;;
21894;SDS011;11112;51.270;7.224;2023-07-13T06:59:23;10.48;;;2.28;;
21894;SDS011;11112;51.270;7.224;2023-07-13T07:01:50;7.32;;;2.08;;
21894;SDS011;11112;51.270;7.224;2023-07-13T07:04:18;10.05;;;2.38;;
21894;SDS011;11112;51.270;7.224;2023-07-13T07:06:46;9.35;;;2.63;;
21894;SDS011;11112;51.270;7.224;2023-07-13T07:09:13;6.82;;;2.00;;
21894;SDS011;11112;51.270;7.224;2023-07-13T07:11:41;10.07;;;2.08;;
21894;SDS011;11112;51.270;7.224;2023-07-13T07:14:08;9.07;;;1.88;;
21894;SDS011;11112;51.270;7.224;2023-07-13T07:16:35;7.30;;;1.85;;
21894;SDS011;11112;51.270;7.224;2023-07-13T07:19:03;6.85;;;2.10;;
21894;SDS011;11112;51.270;7.224;2023-07-13T07:21:31;8.80;;;2.53;;
21894;SDS011;11112;51.270;7.224;2023-07-13T07:23:58;8.57;;;2.10;;
21894;SDS011;11112;51.270;7.224;2023-07-13T07:26:26;8.40;;;1.98;;
21894;SDS011;11112;51.270;7.224;2023-07-13T07:28:53;10.65;;;2.35;;
21894;SDS011;11112;51.270;7.224;2023-07-13T07:31:20;6.68;;;1.92;;
21894;SDS011;11112;51.270;7.224;2023-07-13T07:33:47;11.13;;;2.40;;
21894;SDS011;11112;51.270;7.224;2023-07-13T07:36:15;5.13;;;1.55;;
21894;SDS011;11112;51.270;7.224;2023-07-13T07:38:44;10.20;;;1.88;;
21894;SDS011;11112;51.270;7.224;2023-07-13T07:41:11;7.88;;;2.10;;
21894;SDS011;11112;51.270;7.224;2023-07-13T07:43:39;10.32;;;2.30;;
21894;SDS011;11112;51.270;7.224;2023-07-13T07:46:06;9.60;;;1.98;;
21894;SDS011;11112;51.270;7.224;2023-07-13T07:48:33;8.15;;;2.03;;
21894;SDS011;11112;51.270;7.224;2023-07-13T07:51:00;9.07;;;2.10;;
21894;SDS011;11112;51.270;7.224;2023-07-13T07:53:27;8.20;;;2.00;;
21894;SDS011;11112;51.270;7.224;2023-07-13T07:55:56;6.10;;;1.90;;
21894;SDS011;11112;51.270;7.224;2023-07-13T07:58:23;8.65;;;2.30;;
21894;SDS011;11112;51.270;7.224;2023-07-13T08:00:50;8.40;;;1.92;;
21894;SDS011;11112;51.270;7.224;2023-07-13T08:03:17;9.57;;;2.22;;
21894;SDS011;11112;51.270;7.224;2023-07-13T08:05:44;7.22;;;2.22;;
21894;SDS011;11112;51.270;7.224;2023-07-13T08:08:11;10.68;;;2.30;;
21894;SDS011;11112;51.270;7.224;2023-07-13T08:10:39;10.23;;;2.30;;
21894;SDS011;11112;51.270;7.224;2023-07-13T08:13:07;11.65;;;1.92;;
21894;SDS011;11112;51.270;7.224;2023-07-13T08:15:34;7.47;;;1.77;;
21894;SDS011;11112;51.270;7.224;2023-07-13T08:18:03;8.43;;;2.20;;
21894;SDS011;11112;51.270;7.224;2023-07-13T08:20:31;10.38;;;2.10;;
21894;SDS011;11112;51.270;7.224;2023-07-13T08:22:58;7.82;;;1.83;;
21894;SDS011;11112;51.270;7.224;2023-07-13T08:25:25;8.15;;;2.10;;
21894;SDS011;11112;51.270;7.224;2023-07-13T08:27:52;10.60;;;2.22;;
21894;SDS011;11112;51.270;7.224;2023-07-13T08:30:21;9.07;;;2.30;;
21894;SDS011;11112;51.270;7.224;2023-07-13T08:32:48;12.45;;;2.70;;
21894;SDS011;11112;51.270;7.224;2023-07-13T08:35:15;10.02;;;2.25;;
21894;SDS011;11112;51.270;7.224;2023-07-13T08:37:42;8.60;;;2.55;;
21894;SDS011;11112;51.270;7.224;2023-07-13T08:40:10;9.18;;;2.50;;
21894;SDS011;11112;51.270;7.224;2023-07-13T08:42:39;12.70;;;2.13;;
21894;SDS011;11112;51.270;7.224;2023-07-13T08:45:14;9.52;;;2.50;;
21894;SDS011;11112;51.270;7.224;2023-07-13T08:47:52;8.38;;;2.25;;
21894;SDS011;11112;51.270;7.224;2023-07-13T08:50:26;9.25;;;2.15;;
21894;SDS011;11112;51.270;7.224;2023-07-13T08:52:59;8.23;;;2.10;;
21894;SDS011;11112;51.270;7.224;2023-07-13T08:55:29;7.40;;;2.15;;
21894;SDS011;11112;51.270;7.224;2023-07-13T08:58:03;5.40;;;2.00;;
21894;SDS011;11112;51.270;7.224;2023-07-13T09:00:41;9.68;;;2.40;;
21894;SDS011;11112;51.270;7.224;2023-07-13T09:03:18;9.43;;;2.20;;
21894;SDS011;11112;51.270;7.224;2023-07-13T09:05:50;11.93;;;2.40;;
21894;SDS011;11112;51.270;7.224;2023-07-13T09:11:11;7.70;;;1.98;;
21894;SDS011;11112;51.270;7.224;2023-07-13T09:14:00;7.22;;;2.10;;
21894;SDS011;11112;51.270;7.224;2023-07-13T09:16:54;6.28;;;1.90;;
21894;SDS011;11112;51.270;7.224;2023-07-13T09:19:23;7.70;;;1.80;;
21894;SDS011;11112;51.270;7.224;2023-07-13T09:21:55;8.43;;;2.33;;
21894;SDS011;11112;51.270;7.224;2023-07-13T09:24:29;9.70;;;1.80;;
21894;SDS011;11112;51.270;7.224;2023-07-13T09:27:03;7.63;;;2.20;;
21894;SDS011;11112;51.270;7.224;2023-07-13T09:29:43;8.48;;;2.08;;
21894;SDS011;11112;51.270;7.224;2023-07-13T09:32:17;7.95;;;2.20;;
21894;SDS011;11112;51.270;7.224;2023-07-13T09:34:52;11.95;;;2.55;;
21894;SDS011;11112;51.270;7.224;2023-07-13T09:37:20;11.00;;;1.92;;
21894;SDS011;11112;51.270;7.224;2023-07-13T09:39:50;6.97;;;1.83;;
21894;SDS011;11112;51.270;7.224;2023-07-13T09:42:20;8.48;;;2.08;;
21894;SDS011;11112;51.270;7.224;2023-07-13T09:44:53;8.32;;;2.00;;
21894;SDS011;11112;51.270;7.224;2023-07-13T09:47:24;7.45;;;2.10;;
21894;SDS011;11112;51.270;7.224;2023-07-13T09:49:54;9.73;;;2.42;;
21894;SDS011;11112;51.270;7.224;2023-07-13T09:52:24;8.82;;;2.20;;
21894;SDS011;11112;51.270;7.224;2023-07-13T09:54:52;8.27;;;2.00;;
21894;SDS011;11112;51.270;7.224;2023-07-13T09:57:24;7.55;;;2.10;;
21894;SDS011;11112;51.270;7.224;2023-07-13T09:59:55;7.68;;;2.03;;
21894;SDS011;11112;51.270;7.224;2023-07-13T10:02:26;8.82;;;1.98;;
21894;SDS011;11112;51.270;7.224;2023-07-13T10:04:57;7.80;;;1.67;;
21894;SDS011;11112;51.270;7.224;2023-07-13T10:07:28;8.20;;;2.17;;
21894;SDS011;11112;51.270;7.224;2023-07-13T10:09:57;7.93;;;1.90;;
21894;SDS011;11112;51.270;7.224;2023-07-13T10:12:28;7.53;;;1.88;;
21894;SDS011;11112;51.270;7.224;2023-07-13T10:14:57;7.68;;;1.70;;
21894;SDS011;11112;51.270;7.224;2023-07-13T10:17:29;7.20;;;1.90;;
21894;SDS011;11112;51.270;7.224;2023-07-13T10:19:59;11.40;;;1.75;;
21894;SDS011;11112;51.270;7.224;2023-07-13T10:22:32;6.45;;;2.10;;
21894;SDS011;11112;51.270;7.224;2023-07-13T10:25:13;6.63;;;2.00;;
21894;SDS011;11112;51.270;7.224;2023-07-13T10:27:44;7.28;;;1.92;;
21894;SDS011;11112;51.270;7.224;2023-07-13T10:30:13;8.85;;;1.65;;
21894;SDS011;11112;51.270;7.224;2023-07-13T10:32:47;7.13;;;1.88;;
21894;SDS011;11112;51.270;7.224;2023-07-13T10:35:16;8.90;;;2.17;;
21894;SDS011;11112;51.270;7.224;2023-07-13T10:37:47;8.02;;;1.92;;
21894;SDS011;11112;51.270;7.224;2023-07-13T10:40:19;6.68;;;1.92;;
21894;SDS011;11112;51.270;7.224;2023-07-13T10:42:52;7.95;;;2.30;;
21894;SDS011;11112;51.270;7.224;2023-07-13T10:45:21;11.68;;;1.98;;
21894;SDS011;11112;51.270;7.224;2023-07-13T10:47:52;6.60;;;1.75;;
21894;SDS011;11112;51.270;7.224;2023-07-13T10:50:21;6.70;;;1.90;;
21894;SDS011;11112;51.270;7.224;2023-07-13T10:52:51;6.65;;;1.90;;
21894;SDS011;11112;51.270;7.224;2023-07-13T10:55:31;7.93;;;1.73;;
21894;SDS011;11112;51.270;7.224;2023-07-13T10:58:11;5.43;;;1.70;;
21894;SDS011;11112;51.270;7.224;2023-07-13T11:00:46;7.22;;;1.90;;
21894;SDS011;11112;51.270;7.224;2023-07-13T11:03:18;8.63;;;1.80;;
21894;SDS011;11112;51.270;7.224;2023-07-13T11:05:49;8.03;;;1.70;;
21894;SDS011;11112;51.270;7.224;2023-07-13T11:08:24;7.03;;;1.52;;
21894;SDS011;11112;51.270;7.224;2023-07-13T11:11:02;5.07;;;1.67;;
21894;SDS011;11112;51.270;7.224;2023-07-13T11:13:37;6.95;;;1.80;;
21894;SDS011;11112;51.270;7.224;2023-07-13T11:16:43;7.35;;;1.70;;
21894;SDS011;11112;51.270;7.224;2023-07-13T11:19:38;6.95;;;1.70;;
21894;SDS011;11112;51.270;7.224;2023-07-13T11:22:11;9.60;;;2.05;;
21894;SDS011;11112;51.270;7.224;2023-07-13T11:24:54;6.90;;;1.92;;
21894;SDS011;11112;51.270;7.224;2023-07-13T11:27:37;7.00;;;1.70;;
21894;SDS011;11112;51.270;7.224;2023-07-13T11:30:13;7.30;;;1.90;;
21894;SDS011;11112;51.270;7.224;2023-07-13T11:32:52;7.70;;;1.55;;
21894;SDS011;11112;51.270;7.224;2023-07-13T11:35:40;10.30;;;1.85;;
21894;SDS011;11112;51.270;7.224;2023-07-13T11:38:14;7.15;;;1.90;;
21894;SDS011;11112;51.270;7.224;2023-07-13T11:40:46;9.13;;;2.05;;
21894;SDS011;11112;51.270;7.224;2023-07-13T11:43:17;8.30;;;1.52;;
21894;SDS011;11112;51.270;7.224;2023-07-13T11:45:44;8.27;;;1.88;;
21894;SDS011;11112;51.270;7.224;2023-07-13T11:48:18;6.32;;;1.75;;
21894;SDS011;11112;51.270;7.224;2023-07-13T11:50:53;5.28;;;1.60;;
21894;SDS011;11112;51.270;7.224;2023-07-13T11:53:26;7.47;;;1.80;;
21894;SDS011;11112;51.270;7.224;2023-07-13T11:55:55;6.15;;;1.67;;
21894;SDS011;11112;51.270;7.224;2023-07-13T11:58:24;5.95;;;1.63;;
21894;SDS011;11112;51.270;7.224;2023-07-13T12:00:53;6.72;;;1.60;;
21894;SDS011;11112;51.270;7.224;2023-07-13T12:03:26;6.72;;;1.70;;
21894;SDS011;11112;51.270;7.224;2023-07-13T12:06:02;10.38;;;1.60;;
21894;SDS011;11112;51.270;7.224;2023-07-13T12:08:32;8.13;;;1.80;;
21894;SDS011;11112;51.270;7.224;2023-07-13T12:11:06;4.82;;;1.50;;
21894;SDS011;11112;51.270;7.224;2023-07-13T12:13:43;7.47;;;1.65;;
21894;SDS011;11112;51.270;7.224;2023-07-13T12:16:14;7.85;;;1.40;;
21894;SDS011;11112;51.270;7.224;2023-07-13T12:18:43;7.82;;;1.73;;
21894;SDS011;11112;51.270;7.224;2023-07-13T12:21:16;6.90;;;1.58;;
21894;SDS011;11112;51.270;7.224;2023-07-13T12:23:47;4.57;;;1.50;;
21894;SDS011;11112;51.270;7.224;2023-07-13T12:26:16;7.50;;;1.85;;
21894;SDS011;11112;51.270;7.224;2023-07-13T12:28:45;5.90;;;1.63;;
21894;SDS011;11112;51.270;7.224;2023-07-13T12:31:29;7.18;;;1.45;;
21894;SDS011;11112;51.270;7.224;2023-07-13T12:34:02;7.22;;;1.50;;
21894;SDS011;11112;51.270;7.224;2023-07-13T12:36:36;6.85;;;1.52;;
21894;SDS011;11112;51.270;7.224;2023-07-13T12:39:13;5.60;;;1.52;;
21894;SDS011;11112;51.270;7.224;2023-07-13T12:41:44;6.78;;;1.30;;
21894;SDS011;11112;51.270;7.224;2023-07-13T12:44:12;4.65;;;1.30;;
21894;SDS011;11112;51.270;7.224;2023-07-13T12:46:51;7.18;;;1.58;;
21894;SDS011;11112;51.270;7.224;2023-07-13T12:49:26;4.23;;;1.47;;
21894;SDS011;11112;51.270;7.224;2023-07-13T12:52:02;5.13;;;1.50;;
21894;SDS011;11112;51.270;7.224;2023-07-13T12:54:38;6.13;;;1.60;;
21894;SDS011;11112;51.270;7.224;2023-07-13T12:57:07;6.38;;;1.65;;
21894;SDS011;11112;51.270;7.224;2023-07-13T12:59:42;7.78;;;1.73;;
21894;SDS011;11112;51.270;7.224;2023-07-13T13:02:17;9.50;;;1.88;;
21894;SDS011;11112;51.270;7.224;2023-07-13T13:04:55;5.00;;;1.70;;
21894;SDS011;11112;51.270;7.224;2023-07-13T13:07:24;7.55;;;1.42;;
21894;SDS011;11112;51.270;7.224;2023-07-13T13:09:52;10.32;;;2.05;;
21894;SDS011;11112;51.270;7.224;2023-07-13T13:12:20;9.85;;;1.70;;
21894;SDS011;11112;51.270;7.224;2023-07-13T13:14:47;4.43;;;1.63;;
21894;SDS011;11112;51.270;7.224;2023-07-13T13:17:18;5.00;;;1.40;;
21894;SDS011;11112;51.270;7.224;2023-07-13T13:19:49;6.72;;;1.40;;
21894;SDS011;11112;51.270;7.224;2023-07-13T13:22:18;4.38;;;1.30;;
21894;SDS011;11112;51.270;7.224;2023-07-13T13:24:47;4.40;;;1.17;;
21894;SDS011;11112;51.270;7.224;2023-07-13T13:27:15;6.80;;;1.40;;
21894;SDS011;11112;51.270;7.224;2023-07-13T13:29:43;6.10;;;1.67;;
21894;SDS011;11112;51.270;7.224;2023-07-13T13:32:12;8.98;;;1.55;;
21894;SDS011;11112;51.270;7.224;2023-07-13T13:34:41;5.55;;;1.42;;
21894;SDS011;11112;51.270;7.224;2023-07-13T13:37:16;5.40;;;1.35;;
21894;SDS011;11112;51.270;7.224;2023-07-13T13:39:47;4.30;;;1.30;;
21894;SDS011;11112;51.270;7.224;2023-07-13T13:42:16;6.00;;;1.45;;
21894;SDS011;11112;51.270;7.224;2023-07-13T13:44:43;4.18;;;1.20;;
21894;SDS011;11112;51.270;7.224;2023-07-13T13:47:20;4.05;;;1.27;;
21894;SDS011;11112;51.270;7.224;2023-07-13T13:49:55;7.38;;;1.20;;
21894;SDS011;11112;51.270;7.224;2023-07-13T13:52:23;5.57;;;1.25;;
21894;SDS011;11112;51.270;7.224;2023-07-13T13:54:52;5.18;;;1.30;;
21894;SDS011;11112;51.270;7.224;2023-07-13T13:57:21;6.07;;;1.27;;
21894;SDS011;11112;51.270;7.224;2023-07-13T13:59:51;6.63;;;1.40;;
21894;SDS011;11112;51.270;7.224;2023-07-13T14:02:22;7.57;;;1.48;;
21894;SDS011;11112;51.270;7.224;2023-07-13T14:04:53;9.63;;;1.55;;
21894;SDS011;11112;51.270;7.224;2023-07-13T14:07:24;7.07;;;1.67;;
21894;SDS011;11112;51.270;7.224;2023-07-13T14:09:54;4.65;;;1.38;;
21894;SDS011;11112;51.270;7.224;2023-07-13T14:12:24;5.90;;;1.58;;
21894;SDS011;11112;51.270;7.224;2023-07-13T14:14:53;6.80;;;1.40;;
21894;SDS011;11112;51.270;7.224;2023-07-13T14:17:22;6.22;;;1.48;;
21894;SDS011;11112;51.270;7.224;2023-07-13T14:19:53;4.95;;;1.20;;
21894;SDS011;11112;51.270;7.224;2023-07-13T14:22:22;6.22;;;1.50;;
21894;SDS011;11112;51.270;7.224;2023-07-13T14:24:54;5.72;;;1.23;;
21894;SDS011;11112;51.270;7.224;2023-07-13T14:27:23;7.53;;;1.50;;
21894;SDS011;11112;51.270;7.224;2023-07-13T14:29:51;6.60;;;1.55;;
21894;SDS011;11112;51.270;7.224;2023-07-13T14:32:19;5.25;;;1.80;;
21894;SDS011;11112;51.270;7.224;2023-07-13T14:34:46;8.25;;;1.92;;
21894;SDS011;11112;51.270;7.224;2023-07-13T14:37:16;7.18;;;1.60;;
21894;SDS011;11112;51.270;7.224;2023-07-13T14:39:50;7.32;;;1.77;;
21894;SDS011;11112;51.270;7.224;2023-07-13T14:42:20;7.53;;;1.70;;
21894;SDS011;11112;51.270;7.224;2023-07-13T14:44:47;5.63;;;1.50;;
21894;SDS011;11112;51.270;7.224;2023-07-13T14:47:15;5.47;;;1.50;;
21894;SDS011;11112;51.270;7.224;2023-07-13T14:49:43;4.70;;;1.58;;
21894;SDS011;11112;51.270;7.224;2023-07-13T14:52:13;5.65;;;1.50;;
21894;SDS011;11112;51.270;7.224;2023-07-13T14:54:43;12.80;;;1.90;;
21894;SDS011;11112;51.270;7.224;2023-07-13T14:57:13;4.78;;;1.55;;
21894;SDS011;11112;51.270;7.224;2023-07-13T14:59:43;5.43;;;1.40;;
21894;SDS011;11112;51.270;7.224;2023-07-13T15:02:15;6.35;;;1.40;;
21894;SDS011;11112;51.270;7.224;2023-07-13T15:04:45;4.70;;;1.23;;